Time;durP1;ratioP1;P1;durP2;ratioP2;P2;SDS_P1;SDS_P2;PMS_P1;PMS_P2;Temp;Humidity;BMP_temperature;BMP_pressure;BME280_temperature;BME280_humidity;BME280_pressure;Samples;Min_cycle;Max_cycle;Signal;HPM_P1;HPM_P2
2024/03/29 00:01:24;;;;;;;2.35;0.77;;;10.10;99.90;;;;;;5000254;28;20228;-31
2024/03/29 00:03:51;;;;;;;1.63;0.80;;;10.10;99.90;;;;;;5001050;28;20021;-30
2024/03/29 00:06:16;;;;;;;1.88;0.70;;;10.10;99.90;;;;;;4999356;28;20820;-34
2024/03/29 00:08:42;;;;;;;3.17;0.85;;;10.00;99.90;;;;;;5000404;28;20037;-32
2024/03/29 00:11:07;;;;;;;1.67;0.73;;;10.00;99.90;;;;;;5000211;28;20585;-33
2024/03/29 00:13:34;;;;;;;4.07;0.98;;;10.00;99.90;;;;;;4999580;28;20358;-31
2024/03/29 00:16:00;;;;;;;2.80;0.90;;;10.00;99.90;;;;;;5000304;28;20076;-33
2024/03/29 00:18:26;;;;;;;1.95;0.80;;;10.00;99.90;;;;;;5000482;28;20570;-34
2024/03/29 00:20:51;;;;;;;2.28;0.80;;;9.90;99.90;;;;;;4998902;28;20041;-35
2024/03/29 00:23:17;;;;;;;2.42;0.70;;;9.90;99.90;;;;;;5004059;28;20033;-33
2024/03/29 00:25:43;;;;;;;2.13;0.70;;;9.90;99.90;;;;;;5004064;28;20022;-31
2024/03/29 00:28:08;;;;;;;2.47;0.80;;;9.90;99.90;;;;;;5002955;28;20022;-35
2024/03/29 00:30:34;;;;;;;2.10;0.80;;;9.90;99.90;;;;;;5003377;28;20387;-34
2024/03/29 00:33:05;;;;;;;1.80;0.70;;;9.90;99.90;;;;;;5003715;28;20424;-34
2024/03/29 00:35:34;;;;;;;1.70;0.75;;;9.80;99.90;;;;;;5003675;28;20026;-36
2024/03/29 00:37:59;;;;;;;1.27;0.50;;;9.80;99.90;;;;;;5004125;28;20040;-34
2024/03/29 00:40:25;;;;;;;2.53;0.80;;;9.80;99.90;;;;;;5003076;28;20501;-31
2024/03/29 00:42:50;;;;;;;2.72;0.98;;;9.80;99.90;;;;;;5003546;28;20014;-31
2024/03/29 00:45:16;;;;;;;1.08;0.80;;;9.80;99.90;;;;;;5003520;28;20065;-29
2024/03/29 00:47:42;;;;;;;1.40;0.65;;;9.80;99.90;;;;;;5002859;28;20107;-34
2024/03/29 00:50:09;;;;;;;2.60;0.77;;;9.90;99.90;;;;;;5003862;28;20030;-32
2024/03/29 00:52:35;;;;;;;1.77;0.80;;;9.90;99.90;;;;;;5003742;28;20030;-31
2024/03/29 00:55:01;;;;;;;2.35;0.80;;;9.90;99.90;;;;;;5004417;28;20096;-31
2024/03/29 00:57:26;;;;;;;1.65;0.60;;;9.90;99.90;;;;;;5002847;28;20042;-32
2024/03/29 00:59:52;;;;;;;2.38;0.70;;;9.90;99.90;;;;;;5003347;28;20104;-31
2024/03/29 01:02:17;;;;;;;2.90;0.80;;;9.90;99.90;;;;;;5002391;28;20032;-33
2024/03/29 01:04:43;;;;;;;2.15;0.80;;;9.90;99.90;;;;;;5003343;28;20504;-31
2024/03/29 01:07:09;;;;;;;2.47;0.70;;;10.00;99.90;;;;;;5002650;28;20397;-31
2024/03/29 01:09:37;;;;;;;4.63;0.90;;;10.00;99.90;;;;;;5002826;28;20061;-35
2024/03/29 01:12:03;;;;;;;1.45;0.55;;;10.00;99.90;;;;;;5002952;28;20092;-34
2024/03/29 01:14:28;;;;;;;1.48;0.60;;;10.00;99.90;;;;;;5003897;28;20483;-34
2024/03/29 01:16:54;;;;;;;2.40;0.80;;;10.00;99.90;;;;;;5002060;28;20040;-30
2024/03/29 01:19:20;;;;;;;2.50;0.68;;;10.00;99.90;;;;;;5002834;28;20048;-31
2024/03/29 01:21:45;;;;;;;2.63;0.70;;;10.00;99.90;;;;;;5003003;28;20405;-33
2024/03/29 01:24:11;;;;;;;1.60;0.70;;;10.00;99.90;;;;;;5002105;28;20033;-37
2024/03/29 01:26:36;;;;;;;1.27;0.70;;;10.00;99.90;;;;;;5003461;28;20060;-34
2024/03/29 01:29:02;;;;;;;1.40;0.52;;;10.00;99.90;;;;;;5002948;28;20076;-33
2024/03/29 01:31:30;;;;;;;1.33;0.50;;;9.90;99.90;;;;;;5002594;28;20041;-31
2024/03/29 01:33:57;;;;;;;1.88;0.65;;;9.90;99.90;;;;;;5001183;28;20057;-33
2024/03/29 01:36:23;;;;;;;3.35;1.10;;;9.90;99.90;;;;;;5003170;28;20034;-33
2024/03/29 01:38:51;;;;;;;3.90;0.95;;;9.90;99.90;;;;;;5002411;28;20028;-33
2024/03/29 01:41:16;;;;;;;2.90;0.77;;;9.90;99.90;;;;;;5003531;28;20464;-30
2024/03/29 01:43:42;;;;;;;2.92;0.60;;;9.90;99.90;;;;;;5002641;28;20041;-33
2024/03/29 01:46:08;;;;;;;1.83;0.70;;;9.90;99.90;;;;;;5001872;28;20048;-34
2024/03/29 01:48:34;;;;;;;1.92;0.60;;;9.90;99.90;;;;;;5002860;28;20029;-35
2024/03/29 01:51:00;;;;;;;1.30;0.60;;;9.90;99.90;;;;;;5001948;28;20584;-34
2024/03/29 01:53:26;;;;;;;0.85;0.50;;;9.90;99.90;;;;;;5002065;28;20026;-32
2024/03/29 01:55:53;;;;;;;2.95;0.60;;;9.90;99.90;;;;;;5001878;28;20443;-30
2024/03/29 01:58:20;;;;;;;1.30;0.70;;;9.80;99.90;;;;;;5000984;28;20669;-35
2024/03/29 02:00:53;;;;;;;2.75;0.85;;;9.90;99.90;;;;;;5002547;28;20034;-31
2024/03/29 02:03:19;;;;;;;1.92;0.52;;;9.80;99.90;;;;;;5002326;28;20022;-35
2024/03/29 02:05:46;;;;;;;2.90;0.98;;;9.80;99.90;;;;;;5001577;28;20026;-34
2024/03/29 02:08:15;;;;;;;2.22;0.70;;;9.80;99.90;;;;;;5001394;28;20030;-33
2024/03/29 02:10:48;;;;;;;1.27;0.60;;;9.80;99.90;;;;;;5002223;28;20037;-34
2024/03/29 02:13:13;;;;;;;;;;;9.80;99.90;;;;;;5001906;28;20022;-31
2024/03/29 02:15:40;;;;;;;3.30;0.82;;;9.70;99.90;;;;;;5002498;28;19920;-34
2024/03/29 02:18:06;;;;;;;1.55;0.65;;;9.70;99.90;;;;;;5002477;28;20034;-32
2024/03/29 02:20:33;;;;;;;0.52;0.40;;;9.70;99.90;;;;;;5002389;28;20026;-32
2024/03/29 02:23:05;;;;;;;1.00;0.50;;;9.60;99.90;;;;;;5002480;28;20117;-31
2024/03/29 02:25:31;;;;;;;1.90;1.35;;;9.70;99.90;;;;;;5002068;28;20803;-34
2024/03/29 02:27:58;;;;;;;1.40;0.60;;;9.70;99.90;;;;;;5001997;28;20034;-32
2024/03/29 02:30:23;;;;;;;3.72;0.73;;;9.70;99.90;;;;;;5001880;28;20049;-34
2024/03/29 02:32:50;;;;;;;2.80;0.70;;;9.70;99.90;;;;;;5001929;28;20705;-34
2024/03/29 02:35:16;;;;;;;2.80;0.90;;;9.80;99.90;;;;;;5001086;28;20057;-32
2024/03/29 02:37:41;;;;;;;1.65;0.70;;;9.70;99.90;;;;;;5001981;28;20124;-36
2024/03/29 02:40:08;;;;;;;2.13;0.70;;;9.80;99.90;;;;;;4999570;28;20564;-32
2024/03/29 02:42:35;;;;;;;2.40;1.00;;;9.80;99.90;;;;;;5001288;28;20087;-35
2024/03/29 02:45:02;;;;;;;0.93;0.50;;;9.90;99.90;;;;;;5000666;28;20091;-35
2024/03/29 02:47:27;;;;;;;1.63;0.68;;;9.90;99.90;;;;;;5000088;28;20108;-35
2024/03/29 02:49:53;;;;;;;1.00;0.50;;;9.90;99.90;;;;;;5001251;28;20026;-33
2024/03/29 02:52:18;;;;;;;1.17;0.60;;;10.00;99.90;;;;;;5000779;28;20764;-33
2024/03/29 02:54:44;;;;;;;1.67;0.50;;;10.00;99.90;;;;;;5001085;28;20398;-33
2024/03/29 02:57:10;;;;;;;1.58;0.50;;;10.00;99.90;;;;;;5001033;28;20059;-34
2024/03/29 02:59:35;;;;;;;2.35;0.60;;;10.00;99.90;;;;;;5001911;28;20030;-36
2024/03/29 03:02:01;;;;;;;1.92;0.60;;;10.10;99.90;;;;;;5000529;28;20022;-35
2024/03/29 03:04:26;;;;;;;2.38;0.50;;;10.10;99.90;;;;;;5001705;28;20014;-32
2024/03/29 03:06:52;;;;;;;1.80;0.75;;;10.10;99.90;;;;;;5001436;28;20575;-34
2024/03/29 03:12:02;;;;;;;3.35;0.60;;;10.10;99.90;;;;;;5000068;28;20044;-34
2024/03/29 03:14:28;;;;;;;2.53;0.70;;;10.20;99.90;;;;;;5001366;28;20022;-36
2024/03/29 03:16:53;;;;;;;3.20;0.70;;;10.20;99.90;;;;;;5000552;28;20037;-31
2024/03/29 03:19:19;;;;;;;1.17;0.60;;;10.20;99.90;;;;;;5001848;28;20476;-35
2024/03/29 03:21:52;;;;;;;1.25;0.40;;;10.20;99.90;;;;;;5001203;28;20029;-31
2024/03/29 03:24:17;;;;;;;;;;;10.20;99.90;;;;;;5001027;28;20103;-34
2024/03/29 03:26:42;;;;;;;2.45;0.57;;;10.20;99.90;;;;;;5001328;28;19913;-34
2024/03/29 03:29:10;;;;;;;2.70;0.80;;;10.30;99.90;;;;;;5000299;28;20088;-32
2024/03/29 03:31:35;;;;;;;1.42;0.50;;;10.30;99.90;;;;;;5001153;28;20455;-36
2024/03/29 03:34:01;;;;;;;2.15;0.80;;;10.30;99.90;;;;;;5000939;28;20026;-31
2024/03/29 03:36:26;;;;;;;2.25;0.70;;;10.30;99.90;;;;;;5000354;28;20918;-35
2024/03/29 03:38:52;;;;;;;1.77;0.75;;;10.30;99.90;;;;;;5001219;28;20022;-35
2024/03/29 03:41:17;;;;;;;2.75;0.90;;;10.30;99.90;;;;;;5000882;28;20025;-34
2024/03/29 03:43:43;;;;;;;1.95;0.52;;;10.30;99.90;;;;;;4999998;28;20022;-34
2024/03/29 03:46:08;;;;;;;1.25;0.50;;;10.30;99.90;;;;;;5000861;28;20037;-35
2024/03/29 03:48:37;;;;;;;1.23;0.73;;;10.40;99.90;;;;;;5001197;28;20040;-38
2024/03/29 03:51:03;;;;;;;1.15;0.60;;;10.40;99.90;;;;;;5000162;28;20109;-33
2024/03/29 03:53:28;;;;;;;0.85;0.60;;;10.40;99.90;;;;;;5001177;28;20710;-36
2024/03/29 03:55:54;;;;;;;1.58;0.52;;;10.40;99.90;;;;;;5000804;28;20038;-31
2024/03/29 03:58:19;;;;;;;1.52;0.52;;;10.40;99.90;;;;;;5004066;28;20037;-35
2024/03/29 04:00:45;;;;;;;1.08;0.40;;;10.40;99.90;;;;;;5004833;28;20034;-36
2024/03/29 04:03:11;;;;;;;1.30;0.38;;;10.40;99.90;;;;;;5004392;28;20103;-33
2024/03/29 04:05:37;;;;;;;2.40;0.80;;;10.40;99.90;;;;;;5004002;28;20087;-35
2024/03/29 04:08:03;;;;;;;0.68;0.45;;;10.40;99.90;;;;;;5004542;28;20076;-31
2024/03/29 04:10:29;;;;;;;1.02;0.60;;;10.40;99.90;;;;;;5004920;28;20393;-36
2024/03/29 04:12:54;;;;;;;1.23;0.50;;;10.30;99.90;;;;;;5003598;28;20107;-32
2024/03/29 04:15:20;;;;;;;0.80;0.40;;;10.30;99.90;;;;;;5004791;28;20030;-31
2024/03/29 04:17:45;;;;;;;1.30;0.70;;;10.20;99.90;;;;;;5004974;28;20083;-36
2024/03/29 04:20:11;;;;;;;1.40;0.60;;;10.20;99.90;;;;;;5003379;28;20022;-34
2024/03/29 04:22:40;;;;;;;1.27;0.43;;;10.20;99.90;;;;;;5004885;28;20144;-34
2024/03/29 04:25:12;;;;;;;2.10;0.40;;;10.20;99.90;;;;;;5002850;28;20106;-35
2024/03/29 04:27:37;;;;;;;0.77;0.32;;;10.20;99.90;;;;;;5004447;28;20075;-30
2024/03/29 04:30:03;;;;;;;3.08;0.70;;;10.20;99.90;;;;;;5003501;28;20048;-32
2024/03/29 04:32:29;;;;;;;1.17;0.50;;;10.10;99.90;;;;;;5004426;28;20663;-34
2024/03/29 04:34:55;;;;;;;0.52;0.30;;;10.10;99.90;;;;;;5003898;28;20038;-31
2024/03/29 04:37:20;;;;;;;0.68;0.43;;;10.10;99.90;;;;;;5004209;28;20215;-30
2024/03/29 04:39:46;;;;;;;1.65;0.43;;;10.00;99.90;;;;;;5003512;28;20022;-32
2024/03/29 04:42:15;;;;;;;1.02;0.32;;;10.00;99.90;;;;;;5003644;28;20049;-33
2024/03/29 04:44:40;;;;;;;0.38;0.20;;;10.00;99.90;;;;;;5004245;28;20057;-32
2024/03/29 04:47:06;;;;;;;1.05;0.47;;;10.00;99.90;;;;;;5003375;28;20117;-30
2024/03/29 04:49:34;;;;;;;0.40;0.40;;;9.90;99.90;;;;;;5004443;28;20025;-30
2024/03/29 04:52:00;;;;;;;1.15;0.60;;;9.90;99.90;;;;;;5004269;28;20053;-32
2024/03/29 04:54:29;;;;;;;2.35;0.50;;;9.90;99.90;;;;;;5003265;28;20306;-35
2024/03/29 04:56:55;;;;;;;0.93;0.40;;;9.90;99.90;;;;;;5003903;28;20040;-33
2024/03/29 04:59:20;;;;;;;1.17;0.40;;;9.80;99.90;;;;;;5004318;28;20464;-32
2024/03/29 05:01:53;;;;;;;1.85;0.55;;;9.80;99.90;;;;;;5003238;28;20472;-31
2024/03/29 05:04:25;;;;;;;0.85;0.40;;;9.80;99.90;;;;;;5004065;28;20025;-33
2024/03/29 05:06:54;;;;;;;1.00;0.40;;;9.80;99.90;;;;;;5003382;28;20102;-33
2024/03/29 05:09:21;;;;;;;1.75;0.47;;;9.70;99.90;;;;;;5002920;28;20776;-35
2024/03/29 05:11:47;;;;;;;1.00;0.30;;;9.70;99.90;;;;;;5003633;28;20067;-31
2024/03/29 05:14:19;;;;;;;0.63;0.30;;;9.70;99.90;;;;;;5003028;28;20029;-33
2024/03/29 05:16:46;;;;;;;1.17;0.22;;;9.70;99.90;;;;;;5002600;28;20487;-30
2024/03/29 05:19:15;;;;;;;1.42;0.50;;;9.70;99.90;;;;;;5002988;28;20026;-33
2024/03/29 05:21:41;;;;;;;0.77;0.52;;;9.70;99.90;;;;;;5002177;28;20579;-34
2024/03/29 05:24:08;;;;;;;0.95;0.40;;;9.60;99.90;;;;;;5003130;28;20541;-35
2024/03/29 05:26:35;;;;;;;1.20;0.40;;;9.60;99.90;;;;;;5003421;28;20018;-34
2024/03/29 05:29:00;;;;;;;0.45;0.40;;;9.60;99.90;;;;;;5002487;28;20049;-34
2024/03/29 05:31:26;;;;;;;1.70;0.60;;;9.50;99.90;;;;;;5002541;28;20034;-32
2024/03/29 05:33:52;;;;;;;1.48;0.50;;;9.50;99.90;;;;;;5002836;28;20551;-30
2024/03/29 05:36:18;;;;;;;1.13;0.77;;;9.50;99.90;;;;;;5002469;28;20544;-35
2024/03/29 05:38:47;;;;;;;1.50;0.57;;;9.50;99.90;;;;;;5003765;28;20026;-34
2024/03/29 05:41:12;;;;;;;1.20;0.40;;;9.50;99.90;;;;;;5002935;28;20022;-33
2024/03/29 05:43:43;;;;;;;0.40;0.40;;;9.50;99.90;;;;;;5002067;28;20056;-33
2024/03/29 05:46:09;;;;;;;1.15;0.50;;;9.50;99.90;;;;;;5001974;28;20022;-32
2024/03/29 05:48:35;;;;;;;1.30;0.63;;;9.50;99.90;;;;;;5002876;28;20034;-32
2024/03/29 05:51:00;;;;;;;2.92;0.60;;;9.50;99.90;;;;;;5001945;28;20021;-30
2024/03/29 05:53:26;;;;;;;1.02;0.43;;;9.50;99.90;;;;;;5002818;28;20037;-32
2024/03/29 05:55:51;;;;;;;1.55;0.55;;;9.40;99.90;;;;;;5002816;28;20432;-33
2024/03/29 05:58:18;;;;;;;2.47;0.52;;;9.40;99.90;;;;;;5002122;28;20034;-30
2024/03/29 06:00:44;;;;;;;1.15;0.40;;;9.40;99.90;;;;;;5002722;28;20128;-34
2024/03/29 06:03:10;;;;;;;1.42;0.50;;;9.40;99.90;;;;;;5002359;28;20125;-33
2024/03/29 06:05:35;;;;;;;1.55;0.50;;;9.30;99.90;;;;;;5002730;28;20381;-33
2024/03/29 06:08:01;;;;;;;0.65;0.40;;;9.40;99.90;;;;;;5002119;28;20044;-36
2024/03/29 06:10:26;;;;;;;1.10;0.60;;;9.40;99.90;;;;;;5002602;28;20135;-32
2024/03/29 06:12:52;;;;;;;1.25;0.50;;;9.30;99.90;;;;;;5001338;28;20028;-36
2024/03/29 06:18:02;;;;;;;0.73;0.40;;;9.40;99.90;;;;;;5001905;28;20680;-34
2024/03/29 06:20:28;;;;;;;0.75;0.45;;;9.30;99.90;;;;;;5001835;28;20022;-35
2024/03/29 06:22:53;;;;;;;0.63;0.43;;;9.40;99.90;;;;;;5002358;28;20029;-34
2024/03/29 06:25:19;;;;;;;0.88;0.40;;;9.40;99.90;;;;;;5002192;28;20448;-33
2024/03/29 06:27:47;;;;;;;0.63;0.40;;;9.50;99.90;;;;;;5001736;28;20022;-33
2024/03/29 06:30:15;;;;;;;0.47;0.40;;;9.50;99.90;;;;;;5001331;28;20042;-33
2024/03/29 06:32:41;;;;;;;0.50;0.30;;;9.50;99.90;;;;;;5001309;28;20740;-33
2024/03/29 06:35:07;;;;;;;0.30;0.30;;;9.50;99.90;;;;;;5001633;28;20021;-36
2024/03/29 06:37:32;;;;;;;0.90;0.43;;;9.50;99.90;;;;;;5002252;28;20128;-34
2024/03/29 06:40:02;;;;;;;1.20;0.60;;;9.50;99.90;;;;;;5001170;28;20105;-34
2024/03/29 06:42:32;;;;;;;0.63;0.55;;;9.50;99.90;;;;;;5002120;28;20034;-33
2024/03/29 06:44:58;;;;;;;0.57;0.52;;;9.50;99.90;;;;;;4998822;28;20018;-34
2024/03/29 06:47:24;;;;;;;1.08;0.50;;;9.50;99.90;;;;;;5001329;28;20037;-35
2024/03/29 06:49:50;;;;;;;1.30;0.50;;;9.50;99.90;;;;;;5001645;28;20789;-35
2024/03/29 06:52:16;;;;;;;2.50;0.60;;;9.50;99.90;;;;;;5001355;28;20048;-33
2024/03/29 06:54:41;;;;;;;1.67;0.50;;;9.60;99.90;;;;;;5001016;28;20117;-35
2024/03/29 06:57:09;;;;;;;0.85;0.40;;;9.60;99.90;;;;;;5001199;28;20914;-34
2024/03/29 06:59:34;;;;;;;1.08;0.60;;;9.60;99.90;;;;;;5001184;28;20517;-36
2024/03/29 07:02:00;;;;;;;1.83;0.90;;;9.60;99.90;;;;;;5000644;28;20033;-34
2024/03/29 07:04:27;;;;;;;0.52;0.40;;;9.60;99.90;;;;;;5000852;28;20025;-33
2024/03/29 07:06:53;;;;;;;2.72;0.65;;;9.60;99.90;;;;;;5000993;28;20116;-34
2024/03/29 07:09:21;;;;;;;0.98;0.50;;;9.60;99.90;;;;;;4999958;28;20030;-29
2024/03/29 07:11:47;;;;;;;1.10;0.47;;;9.60;99.90;;;;;;5001776;28;20156;-33
2024/03/29 07:14:17;;;;;;;0.60;0.50;;;9.60;99.90;;;;;;5000886;28;20397;-30
2024/03/29 07:16:43;;;;;;;2.05;0.80;;;9.60;99.90;;;;;;5001628;28;20034;-34
2024/03/29 07:19:14;;;;;;;1.00;0.50;;;9.70;99.90;;;;;;5000062;28;20065;-35
2024/03/29 07:21:40;;;;;;;3.53;0.77;;;9.70;99.90;;;;;;5000391;28;20044;-35
2024/03/29 07:24:06;;;;;;;2.60;0.70;;;9.60;99.90;;;;;;5000609;28;20025;-35
2024/03/29 07:26:32;;;;;;;1.35;0.68;;;9.60;99.90;;;;;;5000973;28;20080;-36
2024/03/29 07:28:57;;;;;;;1.88;0.57;;;9.60;99.90;;;;;;4998728;28;20033;-34
2024/03/29 07:31:23;;;;;;;0.45;0.40;;;9.60;99.90;;;;;;4999641;28;20677;-33
2024/03/29 07:33:48;;;;;;;0.73;0.45;;;9.60;99.90;;;;;;5001342;28;20032;-32
2024/03/29 07:36:16;;;;;;;0.55;0.50;;;9.70;99.90;;;;;;5000285;28;20136;-30
2024/03/29 07:38:42;;;;;;;1.10;0.40;;;9.70;99.90;;;;;;5001266;28;20044;-31
2024/03/29 07:41:09;;;;;;;1.05;0.55;;;9.80;99.90;;;;;;5000368;28;20672;-32
2024/03/29 07:43:50;;;;;;;0.70;0.40;;;9.80;99.90;;;;;;5000154;28;20030;-36
2024/03/29 07:46:16;;;;;;;1.30;0.50;;;9.90;99.90;;;;;;5000559;28;20037;-32
2024/03/29 07:48:41;;;;;;;0.95;0.40;;;9.90;99.90;;;;;;5000979;28;20045;-33
2024/03/29 07:51:07;;;;;;;1.00;0.40;;;9.90;99.90;;;;;;4999739;28;20133;-35
2024/03/29 07:53:35;;;;;;;0.85;0.60;;;10.00;99.90;;;;;;5000918;28;20057;-29
2024/03/29 07:56:01;;;;;;;1.48;0.90;;;10.00;99.90;;;;;;4999680;28;20046;-35
2024/03/29 07:58:27;;;;;;;1.75;0.95;;;10.00;99.90;;;;;;5000170;28;20040;-32
2024/03/29 08:00:53;;;;;;;0.73;0.63;;;10.00;99.90;;;;;;5000128;28;20029;-34
2024/03/29 08:03:20;;;;;;;0.50;0.40;;;10.00;99.90;;;;;;5000879;28;20030;-32
2024/03/29 08:06:04;;;;;;;0.82;0.50;;;10.00;99.90;;;;;;4999164;28;20041;-36
2024/03/29 08:08:33;;;;;;;1.08;0.60;;;9.90;99.90;;;;;;5000651;28;20034;-32
2024/03/29 08:11:02;;;;;;;1.63;0.50;;;9.90;99.90;;;;;;4999425;28;20436;-33
2024/03/29 08:13:28;;;;;;;0.47;0.47;;;10.00;99.90;;;;;;5000384;28;20081;-35
2024/03/29 08:16:01;;;;;;;0.80;0.60;;;9.90;99.90;;;;;;4999663;28;20556;-31
2024/03/29 08:18:27;;;;;;;0.95;0.85;;;9.90;99.90;;;;;;4999496;28;20113;-31
2024/03/29 08:20:57;;;;;;;0.80;0.63;;;9.90;99.90;;;;;;5000151;28;20431;-32
2024/03/29 08:23:23;;;;;;;1.38;0.80;;;9.90;99.90;;;;;;5000392;28;20084;-31
2024/03/29 08:25:51;;;;;;;1.13;0.80;;;9.90;99.90;;;;;;4999685;28;20030;-30
2024/03/29 08:28:20;;;;;;;1.08;0.60;;;9.90;99.90;;;;;;4999800;28;20038;-34
2024/03/29 08:30:57;;;;;;;0.57;0.50;;;10.00;99.90;;;;;;5000244;28;20054;-35
2024/03/29 08:33:22;;;;;;;0.57;0.55;;;10.00;99.90;;;;;;4998172;28;20029;-31
2024/03/29 08:35:48;;;;;;;1.30;0.70;;;10.10;99.90;;;;;;5000075;28;20028;-36
2024/03/29 08:38:13;;;;;;;0.70;0.60;;;10.10;99.90;;;;;;4999516;28;20580;-31
2024/03/29 08:40:42;;;;;;;1.00;0.50;;;10.10;99.90;;;;;;4999424;28;20026;-32
2024/03/29 08:43:07;;;;;;;0.73;0.60;;;10.10;99.90;;;;;;4999270;28;20044;-34
2024/03/29 08:45:33;;;;;;;0.90;0.60;;;10.20;99.90;;;;;;5003913;28;20018;-33
2024/03/29 08:47:58;;;;;;;0.88;0.60;;;10.20;99.90;;;;;;5005021;28;20022;-35
2024/03/29 08:50:24;;;;;;;1.13;0.70;;;10.30;99.90;;;;;;5004135;28;20036;-34
2024/03/29 08:52:49;;;;;;;2.08;0.57;;;10.30;99.90;;;;;;5003000;28;20125;-39
2024/03/29 08:55:15;;;;;;;1.85;0.65;;;10.30;99.90;;;;;;5003399;28;20104;-33
2024/03/29 08:57:40;;;;;;;1.70;0.80;;;10.40;99.90;;;;;;5003393;28;20034;-33
2024/03/29 09:00:08;;;;;;;1.73;0.70;;;10.50;99.90;;;;;;5000340;28;20021;-33
2024/03/29 09:02:34;;;;;;;1.02;0.52;;;10.50;99.90;;;;;;5002188;28;20444;-32
2024/03/29 09:05:02;;;;;;;1.40;0.55;;;10.60;99.90;;;;;;5002648;28;20485;-34
2024/03/29 09:07:28;;;;;;;0.77;0.65;;;10.60;99.90;;;;;;5002495;28;20037;-35
2024/03/29 09:09:54;;;;;;;1.75;0.57;;;10.70;99.90;;;;;;5002802;28;20052;-30
2024/03/29 09:12:19;;;;;;;0.73;0.57;;;10.70;99.90;;;;;;5002954;28;20105;-29
2024/03/29 09:14:45;;;;;;;1.65;1.10;;;10.80;99.90;;;;;;5002815;28;20050;-35
2024/03/29 09:17:11;;;;;;;0.70;0.68;;;10.80;99.90;;;;;;5002387;28;20034;-29
2024/03/29 09:19:37;;;;;;;0.93;0.60;;;10.80;99.90;;;;;;4999688;28;20030;-33
2024/03/29 09:22:03;;;;;;;1.20;0.70;;;11.00;99.90;;;;;;5010340;28;20030;-36
2024/03/29 09:24:29;;;;;;;1.17;0.70;;;11.00;99.90;;;;;;5002080;28;20033;-34
2024/03/29 09:26:54;;;;;;;1.45;0.80;;;11.10;99.90;;;;;;5003578;28;20113;-31
2024/03/29 09:29:20;;;;;;;1.15;0.60;;;11.20;99.90;;;;;;5001874;28;20064;-35
2024/03/29 09:31:46;;;;;;;0.63;0.60;;;11.20;99.90;;;;;;5003041;28;20053;-33
2024/03/29 09:34:12;;;;;;;1.70;0.50;;;11.20;99.90;;;;;;5001356;28;20133;-32
2024/03/29 09:36:38;;;;;;;1.08;0.70;;;11.20;99.90;;;;;;5002287;28;20481;-34
2024/03/29 09:39:08;;;;;;;0.80;0.60;;;11.20;99.90;;;;;;5002226;28;20045;-34
2024/03/29 09:41:37;;;;;;;1.13;0.63;;;11.20;99.90;;;;;;5002828;28;20486;-31
2024/03/29 09:44:09;;;;;;;0.90;0.60;;;11.20;99.90;;;;;;5002259;28;20564;-33
2024/03/29 09:46:36;;;;;;;0.90;0.65;;;11.30;99.90;;;;;;5003607;28;20867;-31
2024/03/29 09:49:04;;;;;;;1.15;0.70;;;11.30;99.90;;;;;;5002555;28;20485;-33
2024/03/29 09:51:30;;;;;;;0.88;0.50;;;11.40;99.90;;;;;;5003196;28;20768;-33
2024/03/29 09:53:58;;;;;;;1.00;0.50;;;11.60;99.90;;;;;;5001875;28;20060;-30
2024/03/29 09:56:26;;;;;;;1.30;0.80;;;11.70;99.90;;;;;;5001701;28;20069;-35
2024/03/29 09:58:52;;;;;;;1.23;0.75;;;11.80;99.90;;;;;;5002460;28;20026;-34
2024/03/29 10:01:18;;;;;;;1.10;0.82;;;11.90;99.90;;;;;;5002734;28;20030;-31
2024/03/29 10:03:49;;;;;;;0.60;0.60;;;12.00;99.90;;;;;;5002258;28;20528;-31
2024/03/29 10:06:23;;;;;;;0.70;0.68;;;12.20;99.90;;;;;;5002331;28;20030;-34
2024/03/29 10:08:51;;;;;;;1.52;0.90;;;12.30;99.90;;;;;;5002180;28;20571;-34
2024/03/29 10:11:18;;;;;;;0.80;0.80;;;12.40;99.90;;;;;;5001093;28;20942;-32
2024/03/29 10:13:47;;;;;;;0.80;0.77;;;12.40;99.90;;;;;;5002097;28;20050;-35
2024/03/29 10:16:13;;;;;;;0.88;0.80;;;12.60;99.90;;;;;;5000701;28;20641;-36
2024/03/29 10:18:41;;;;;;;1.35;0.70;;;12.60;99.90;;;;;;5000643;28;20084;-36
2024/03/29 10:21:07;;;;;;;2.28;0.80;;;12.60;99.90;;;;;;5001116;28;20032;-35
2024/03/29 10:23:35;;;;;;;1.38;0.90;;;12.60;99.90;;;;;;5002030;28;20030;-34
2024/03/29 10:26:01;;;;;;;0.77;0.75;;;12.60;99.90;;;;;;5000908;28;20025;-34
2024/03/29 10:28:36;;;;;;;1.52;0.60;;;12.60;99.90;;;;;;5002111;28;20551;-34
2024/03/29 10:31:03;;;;;;;1.63;0.80;;;12.60;99.90;;;;;;5000938;28;20103;-32
2024/03/29 10:33:36;;;;;;;1.85;1.00;;;12.50;99.90;;;;;;5001198;28;20107;-37
2024/03/29 10:36:05;;;;;;;1.73;0.90;;;12.50;99.90;;;;;;5001493;28;20482;-34
2024/03/29 10:38:31;;;;;;;0.77;0.77;;;12.40;99.90;;;;;;5001670;28;20026;-32
2024/03/29 10:41:06;;;;;;;1.88;0.90;;;12.50;99.90;;;;;;5001593;28;20033;-34
2024/03/29 10:43:32;;;;;;;1.05;0.80;;;12.50;99.90;;;;;;5001523;28;20029;-36
2024/03/29 10:46:03;;;;;;;1.08;0.80;;;12.60;99.90;;;;;;5000493;28;20129;-33
2024/03/29 10:48:32;;;;;;;1.23;0.80;;;12.70;99.90;;;;;;4990994;28;20033;-34
2024/03/29 10:50:58;;;;;;;2.83;1.02;;;12.90;99.90;;;;;;5001050;28;20053;-36
2024/03/29 10:53:26;;;;;;;1.73;1.00;;;13.00;99.90;;;;;;5000221;28;20033;-35
2024/03/29 10:55:56;;;;;;;2.35;1.30;;;13.00;99.90;;;;;;5001202;28;20449;-35
2024/03/29 10:58:24;;;;;;;1.85;1.02;;;13.00;99.90;;;;;;4998074;28;20030;-33
2024/03/29 11:00:56;;;;;;;1.63;0.90;;;13.00;99.90;;;;;;5000408;28;20670;-33
2024/03/29 11:03:43;;;;;;;1.30;0.90;;;13.00;99.90;;;;;;5000501;28;20105;-36
2024/03/29 11:06:13;;;;;;;1.27;1.00;;;13.10;99.90;;;;;;5000824;28;20040;-34
2024/03/29 11:08:45;;;;;;;2.88;0.80;;;13.30;99.90;;;;;;5000781;28;20014;-33
2024/03/29 11:11:12;;;;;;;1.13;1.03;;;13.40;99.90;;;;;;5001263;28;20034;-33
2024/03/29 11:13:48;;;;;;;1.55;0.98;;;13.40;99.90;;;;;;5001095;28;20030;-32
2024/03/29 11:16:18;;;;;;;1.48;1.00;;;13.50;99.90;;;;;;5001497;28;20033;-35
2024/03/29 11:18:47;;;;;;;1.83;1.15;;;13.50;99.90;;;;;;5001010;28;20052;-29
2024/03/29 11:21:18;;;;;;;1.10;1.00;;;13.50;99.90;;;;;;5000275;28;20033;-31
2024/03/29 11:23:48;;;;;;;1.63;0.90;;;13.60;99.90;;;;;;4999361;28;20051;-34
2024/03/29 11:26:17;;;;;;;1.83;1.08;;;13.70;99.90;;;;;;4999255;28;20030;-32
2024/03/29 11:28:51;;;;;;;1.38;1.08;;;13.80;99.90;;;;;;4997967;28;20068;-33
2024/03/29 11:31:17;;;;;;;0.88;0.80;;;13.80;99.90;;;;;;4979566;28;20042;-35
2024/03/29 11:33:44;;;;;;;2.33;1.42;;;13.90;99.90;;;;;;4994063;28;20080;-32
2024/03/29 11:36:16;;;;;;;0.80;0.80;;;14.00;99.90;;;;;;4998051;28;20037;-35
2024/03/29 11:38:43;;;;;;;1.07;0.83;;;14.10;99.90;;;;;;4999194;28;20030;-36
2024/03/29 11:41:18;;;;;;;1.67;0.82;;;14.20;99.90;;;;;;5000083;28;20268;-36
2024/03/29 11:43:44;;;;;;;1.17;0.80;;;14.30;99.90;;;;;;4999771;28;20037;-30
2024/03/29 11:46:12;;;;;;;2.50;0.80;;;14.30;99.90;;;;;;5000741;28;20041;-36
2024/03/29 11:48:41;;;;;;;0.82;0.75;;;14.40;99.90;;;;;;5000318;28;20026;-30
2024/03/29 11:51:10;;;;;;;1.33;1.00;;;14.40;99.90;;;;;;5000444;28;20839;-39
2024/03/29 11:53:36;;;;;;;1.50;0.80;;;14.60;99.90;;;;;;5001198;28;20026;-33
2024/03/29 11:56:03;;;;;;;1.48;0.93;;;14.60;99.90;;;;;;4999966;28;20099;-34
2024/03/29 11:58:30;;;;;;;1.00;0.80;;;14.70;99.90;;;;;;5000619;28;20022;-34
2024/03/29 12:00:57;;;;;;;1.13;0.90;;;14.70;99.90;;;;;;5000601;28;20034;-35
2024/03/29 12:03:28;;;;;;;0.65;0.65;;;14.80;99.90;;;;;;4999720;28;20046;-35
2024/03/29 12:05:58;;;;;;;1.33;0.90;;;14.90;99.90;;;;;;5000257;28;20025;-33
2024/03/29 12:08:55;;;;;;;2.25;0.70;;;14.90;99.90;;;;;;5000141;28;20034;-35
2024/03/29 12:11:21;;;;;;;1.15;0.73;;;15.00;99.90;;;;;;4987657;28;20080;-30
2024/03/29 12:13:47;;;;;;;0.50;0.50;;;15.10;99.90;;;;;;5000864;28;20064;-33
2024/03/29 12:16:12;;;;;;;1.17;0.75;;;15.10;99.90;;;;;;5001023;28;20683;-35
2024/03/29 12:18:38;;;;;;;0.75;0.68;;;15.10;99.90;;;;;;5003259;28;20079;-34
2024/03/29 12:21:04;;;;;;;0.85;0.60;;;15.10;99.90;;;;;;5004066;28;20028;-36
2024/03/29 12:23:30;;;;;;;1.00;0.80;;;15.20;99.90;;;;;;5005002;28;20058;-32
2024/03/29 12:25:58;;;;;;;1.23;1.13;;;15.30;99.90;;;;;;5003960;28;20026;-28
2024/03/29 12:28:28;;;;;;;1.45;1.10;;;15.30;99.90;;;;;;5005120;28;20030;-35
2024/03/29 12:30:54;;;;;;;1.50;0.80;;;15.40;99.90;;;;;;5003002;28;20045;-35
2024/03/29 12:33:21;;;;;;;0.60;0.60;;;15.50;99.90;;;;;;5004122;28;20026;-35
2024/03/29 12:35:49;;;;;;;1.25;0.60;;;15.50;99.90;;;;;;5004097;28;20060;-33
2024/03/29 12:38:17;;;;;;;0.63;0.63;;;15.60;99.90;;;;;;5003348;28;20037;-35
2024/03/29 12:40:47;;;;;;;2.65;0.80;;;15.70;99.90;;;;;;5003883;28;20014;-31
2024/03/29 12:43:13;;;;;;;1.00;0.82;;;15.60;99.90;;;;;;5004176;28;20026;-34
2024/03/29 12:45:40;;;;;;;1.02;0.65;;;15.60;99.90;;;;;;5003132;28;20026;-36
2024/03/29 12:48:13;;;;;;;1.98;0.82;;;15.60;99.90;;;;;;5003429;28;20021;-35
2024/03/29 12:50:44;;;;;;;0.93;0.80;;;15.70;99.90;;;;;;5004181;28;20108;-36
2024/03/29 12:53:11;;;;;;;1.00;0.70;;;15.60;99.90;;;;;;5002936;28;20515;-32
2024/03/29 12:55:39;;;;;;;1.25;0.80;;;15.60;99.90;;;;;;5003685;28;20022;-35
2024/03/29 12:58:09;;;;;;;1.00;0.57;;;15.60;99.90;;;;;;5002786;28;20053;-35